METAR and TAF information
METAR FOR VHHH
ADDS - METARS form results

(1905 UTC 19 April 2018)
Data provider http://aviationweather.gov/adds/metars/
 
METAR text: VHHH 191900Z 09009KT 060V150 9999 FEW015 SCT022 23/19 Q1013 NOSIG
Conditions at: VHHH (HONG KONG INTL , HK) observed 1900 UTC 19 April 2018
Temperature: 23.0°C (73°F)
Dewpoint: 19.0°C (66°F) [RH = 78%]
Pressure (altimeter): 29.91 inches Hg (1013.0 mb)
Winds: from the E (90 degrees) at 10 MPH (9 knots; 4.7 m/s)
Visibility: 6 or more miles (10+ km)
Ceiling: at least 12,000 feet AGL
Clouds: few clouds at 1500 feet AGL
scattered clouds at 2200 feet AGL
Weather: no significant weather observed at this time

METAR text: VHHH 191830Z 09009KT 060V150 9999 FEW015 SCT025 23/19 Q1013 NOSIG
Conditions at: VHHH (HONG KONG INTL , HK) observed 1830 UTC 19 April 2018
Temperature: 23.0°C (73°F)
Dewpoint: 19.0°C (66°F) [RH = 78%]
Pressure (altimeter): 29.91 inches Hg (1013.0 mb)
Winds: from the E (90 degrees) at 10 MPH (9 knots; 4.7 m/s)
Visibility: 6 or more miles (10+ km)
Ceiling: at least 12,000 feet AGL
Clouds: few clouds at 1500 feet AGL
scattered clouds at 2500 feet AGL
Weather: no significant weather observed at this time

Forecast for: VHHH (HONG KONG INTL , HK)
Text: TAF VHHH 191700Z 1918/2024 09010KT 9999 FEW030 TX27/2007Z TN22/1923Z TN23/2023Z
Forecast period: 1800 UTC 19 April 2018 to 0000 UTC 21 April 2018
Forecast type: FROM: standard forecast or significant change
Winds: from the E (90 degrees) at 12 MPH (10 knots; 5.2 m/s)
Visibility: 6 or more miles (10+ km)
Clouds: few clouds at 3000 feet AGL
Weather: no significant weather forecast for this period
Forecast for: VHHH (HONG KONG INTL , HK)
Text: TAF VHHH 191700Z 1918/2024 09010KT 9999 FEW030 TX27/2007Z TN22/1923Z TN23/2023Z
Forecast period: 1800 UTC 19 April 2018 to 0000 UTC 21 April 2018
Forecast type: FROM: standard forecast or significant change
Winds: from the E (90 degrees) at 12 MPH (10 knots; 5.2 m/s)
Visibility: 6 or more miles (10+ km)
Clouds: few clouds at 3000 feet AGL
Weather: no significant weather forecast for this period
Forecast for: VHHH (HONG KONG INTL , HK)
Text: TAF VHHH 191700Z 1918/2024 09010KT 9999 FEW030 TX27/2007Z TN22/1923Z TN23/2023Z
Forecast period: 0000 to 0600 UTC 20 April 2018
Forecast type: TEMPORARY: The following changes expected for less than half the time period
Visibility: 2.49 miles (4.01 km)
Weather: SHRA  (rain showers)
Forecast for: VHHH (HONG KONG INTL , HK)
Text: TAF VHHH 191700Z 1918/2024 09010KT 9999 FEW030 TX27/2007Z TN22/1923Z TN23/2023Z
Forecast period: 0000 to 0600 UTC 20 April 2018
Forecast type: TEMPORARY: The following changes expected for less than half the time period
Visibility: 2.49 miles (4.01 km)
Weather: SHRA  (rain showers)

 Airport map

 Runway information
Runway 07L Runway length 12467 ft Runway width 197 ft
Runway elevation 22 ft Runway displaced threshold 565 ft Runway heading 71
Runway 25R Runway length 12467 ft Runway width 197 ft
Runway elevation 23 ft Runway displaced threshold 580 ft Runway heading 251
Runway 07R Runway length 12467 ft Runway width 197 ft
Runway elevation 28 ft Runway displaced threshold 525 ft Runway heading 71
Runway 25L Runway length 12467 ft Runway width 197 ft
Runway elevation 27 ft Runway displaced threshold 0 ft Runway heading 251

 Airport frequencies
Type AFIS Name FLIGHT SER Frequency 122.4 MHZ
Type APP Name APP Frequency 119.1 MHZ
Type APP Name Director Frequency 119.5 MHZ
Type ATIS-A Name Arrivel Frequency 128.2 MHZ
Type ATIS-D Name Departure Frequency 127.05 MHZ
Type CAC Name ZONE CON Frequency 120.6 MHZ
Type CLD Name CLNC DEL Frequency 129.9 MHZ
Type DEP Name DEP Frequency 123.8 MHZ
Type EMG Name Hong Kong Frequency 121.5 MHZ
Type GND Name GND North Frequency 121.6 MHZ
Type GND Name GND South Frequency 122.55 MHZ
Type RDR Name Radar Frequency 121.3 MHZ
Type RDR Name PRECISION Frequency 133.7 MHZ
Type TWR Name Tower Nort Frequency 118.2 MHZ
Type TWR Name TWR South Frequency 118.4 MHZ

 Airport & nearby NAVAIDS
Type VOR-DME Name Cheung Chau Frequency 112300 KHZ
Type NDB Name Cape D Aguilar Frequency 338 KHZ
Type NDB Name Lam Chau Frequency 390 KHZ
Type VOR-DME Name Lung Kwu Chau Frequency 113200 KHZ
Type VOR-DME Name Siu Mo To Frequency 114800 KHZ
Type VOR-DME Name Tathong Point Frequency 115500 KHZ




Powered by VAM | Theme by g1g@byt3



Copyright © 2016 - 2018 Olympic Airlines Virtual. All rights reserved.

Olympic Airlines, Olympic Airways etc. are registered trademarks of
their respective owners and are hereby used only for educational
purposes.
Legal disclaimer